Time;durP1;ratioP1;P1;durP2;ratioP2;P2;SDS_P1;SDS_P2;PMS_P1;PMS_P2;Temp;Humidity;BMP_temperature;BMP_pressure;BME280_temperature;BME280_humidity;BME280_pressure;Samples;Min_cycle;Max_cycle;Signal;HPM_P1;HPM_P2
2022/12/31 00:01:11;;;;;;;;;;;;;;;;;;5057072;28;20259;-24
2022/12/31 00:03:37;;;;;;;;;;;;;;;;;;5057047;28;19940;-25
2022/12/31 00:06:03;;;;;;;;;;;;;;;;;;5057100;28;19990;-25
2022/12/31 00:08:29;;;;;;;;;;;;;;;;;;5055868;28;19919;-24
2022/12/31 00:10:55;;;;;;;;;;;;;;;;;;5056839;28;19931;-24
2022/12/31 00:13:21;;;;;;;;;;;;;;;;;;5056697;28;19972;-25
2022/12/31 00:15:47;;;;;;;;;;;;;;;;;;5056988;28;19909;-24
2022/12/31 00:18:13;;;;;;;;;;;;;;;;;;5056300;28;20023;-24
2022/12/31 00:20:39;;;;;;;;;;;;;;;;;;5056684;28;20003;-24
2022/12/31 00:23:05;;;;;;;;;;;;;;;;;;5056402;28;19912;-25
2022/12/31 00:25:31;;;;;;;;;;;;;;;;;;5056411;28;19917;-24
2022/12/31 00:27:57;;;;;;;;;;;;;;;;;;5056476;28;20366;-24
2022/12/31 00:30:24;;;;;;;;;;;;;;;;;;5056695;28;19933;-25
2022/12/31 00:32:50;;;;;;;;;;;;;;;;;;5056337;28;19913;-24
2022/12/31 00:35:16;;;;;;;;;;;;;;;;;;5056146;28;19948;-25
2022/12/31 00:37:42;;;;;;;;;;;;;;;;;;5056371;28;19963;-24
2022/12/31 00:40:08;;;;;;;;;;;;;;;;;;5055352;28;19912;-24
2022/12/31 00:42:34;;;;;;;;;;;;;;;;;;5056340;28;19909;-24
2022/12/31 00:45:01;;;;;;;;;;;;;;;;;;5055990;28;19939;-24
2022/12/31 00:47:27;;;;;;;;;;;;;;;;;;5056440;28;19909;-24
2022/12/31 00:49:54;;;;;;;;;;;;;;;;;;5056055;28;19913;-25
2022/12/31 00:52:20;;;;;;;;;;;;;;;;;;5056159;28;19972;-25
2022/12/31 00:54:46;;;;;;;;;;;;;;;;;;5055932;28;19920;-24
2022/12/31 00:57:13;;;;;;;;;;;;;;;;;;5055896;28;19913;-25
2022/12/31 00:59:39;;;;;;;;;;;;;;;;;;5056084;28;20233;-24
2022/12/31 01:02:05;;;;;;;;;;;;;;;;;;5055781;28;19908;-24
2022/12/31 01:04:31;;;;;;;;;;;;;;;;;;5055535;28;19940;-25
2022/12/31 01:06:58;;;;;;;;;;;;;;;;;;5055911;28;19932;-24
2022/12/31 01:09:24;;;;;;;;;;;;;;;;;;5055654;28;19913;-28
2022/12/31 01:11:50;;;;;;;;;;;;;;;;;;5055802;28;20334;-24
2022/12/31 01:14:17;;;;;;;;;;;;;;;;;;5055596;28;19920;-25
2022/12/31 01:16:43;;;;;;;;;;;;;;;;;;5055502;28;20299;-24
2022/12/31 01:19:09;;;;;;;;;;;;;;;;;;5055507;28;19966;-24
2022/12/31 01:21:35;;;;;;;;;;;;;;;;;;5055473;28;19955;-24
2022/12/31 01:24:02;;;;;;;;;;;;;;;;;;5055413;28;20297;-24
2022/12/31 01:26:28;;;;;;;;;;;;;;;;;;5055347;28;20374;-24
2022/12/31 01:28:54;;;;;;;;;;;;;;;;;;5055512;28;19913;-24
2022/12/31 01:31:20;;;;;;;;;;;;;;;;;;5054694;28;19916;-24
2022/12/31 01:33:46;;;;;;;;;;;;;;;;;;5055438;28;19912;-24
2022/12/31 01:36:12;;;;;;;;;;;;;;;;;;5055100;28;20241;-25
2022/12/31 01:38:38;;;;;;;;;;;;;;;;;;5054209;28;19920;-25
2022/12/31 01:41:04;;;;;;;;;;;;;;;;;;5055057;28;19932;-26
2022/12/31 01:43:30;;;;;;;;;;;;;;;;;;5055275;28;19909;-25
2022/12/31 01:45:57;;;;;;;;;;;;;;;;;;5055196;28;19974;-25
2022/12/31 01:48:23;;;;;;;;;;;;;;;;;;5055102;28;20011;-24
2022/12/31 01:50:48;;;;;;;;;;;;;;;;;;5055000;28;20386;-24
2022/12/31 01:53:15;;;;;;;;;;;;;;;;;;5054871;28;19999;-24
2022/12/31 01:55:40;;;;;;;;;;;;;;;;;;5055177;28;19999;-25
2022/12/31 01:58:06;;;;;;;;;;;;;;;;;;5055202;28;20417;-24
2022/12/31 02:00:32;;;;;;;;;;;;;;;;;;5055110;28;20233;-24
2022/12/31 02:02:59;;;;;;;;;;;;;;;;;;5054522;28;19975;-25
2022/12/31 02:05:24;;;;;;;;;;;;;;;;;;5054809;28;20376;-25
2022/12/31 02:07:50;;;;;;;;;;;;;;;;;;5055022;28;19943;-24
2022/12/31 02:10:16;;;;;;;;;;;;;;;;;;5054727;28;19921;-25
2022/12/31 02:12:42;;;;;;;;;;;;;;;;;;5054874;28;19917;-25
2022/12/31 02:15:08;;;;;;;;;;;;;;;;;;5054609;28;19909;-24
2022/12/31 02:17:34;;;;;;;;;;;;;;;;;;5054930;28;20335;-25
2022/12/31 02:20:01;;;;;;;;;;;;;;;;;;5054653;28;19948;-25
2022/12/31 02:22:27;;;;;;;;;;;;;;;;;;5054572;28;20303;-25
2022/12/31 02:24:53;;;;;;;;;;;;;;;;;;5054671;28;20399;-24
2022/12/31 02:27:19;;;;;;;;;;;;;;;;;;5054533;28;20000;-24
2022/12/31 02:29:45;;;;;;;;;;;;;;;;;;5054898;28;19920;-25
2022/12/31 02:32:11;;;;;;;;;;;;;;;;;;5054493;28;19913;-25
2022/12/31 02:34:37;;;;;;;;;;;;;;;;;;5053490;28;19924;-24
2022/12/31 02:37:03;;;;;;;;;;;;;;;;;;5054504;28;20205;-24
2022/12/31 02:39:29;;;;;;;;;;;;;;;;;;5054440;28;20371;-25
2022/12/31 02:41:55;;;;;;;;;;;;;;;;;;5056698;28;19920;-24
2022/12/31 02:44:22;;;;;;;;;;;;;;;;;;5058737;28;19944;-25
2022/12/31 02:46:48;;;;;;;;;;;;;;;;;;5058302;28;19924;-25
2022/12/31 02:49:14;;;;;;;;;;;;;;;;;;5058387;28;19909;-24
2022/12/31 02:51:40;;;;;;;;;;;;;;;;;;5058293;28;19963;-25
2022/12/31 02:54:06;;;;;;;;;;;;;;;;;;5058453;28;20244;-25
2022/12/31 02:56:33;;;;;;;;;;;;;;;;;;5058448;28;19912;-25
2022/12/31 03:04:32;;;;;;;;;;;;;;;;;;5057952;28;19990;-25
2022/12/31 03:06:58;;;;;;;;;;;;;;;;;;5057812;28;19932;-25
2022/12/31 03:09:25;;;;;;;;;;;;;;;;;;5058238;28;19909;-25
2022/12/31 03:14:35;;;;;;;;;;;;;;;;;;5058222;28;19935;-25
2022/12/31 03:17:01;;;;;;;;;;;;;;;;;;5057784;28;19913;-25
2022/12/31 03:22:28;;;;;;;;;;;;;;;;;;5057917;28;19924;-25
2022/12/31 03:27:39;;;;;;;;;;;;;;;;;;5057887;28;20248;-25
2022/12/31 03:30:05;;;;;;;;;;;;;;;;;;5057849;28;19952;-25
2022/12/31 03:32:32;;;;;;;;;;;;;;;;;;5057484;28;19913;-25
2022/12/31 03:34:58;;;;;;;;;;;;;;;;;;5056552;28;19952;-25
2022/12/31 03:37:24;;;;;;;;;;;;;;;;;;5057752;28;20371;-25
2022/12/31 03:39:51;;;;;;;;;;;;;;;;;;5057505;28;19923;-25
2022/12/31 03:42:17;;;;;;;;;;;;;;;;;;5056817;28;19923;-25
2022/12/31 03:44:44;;;;;;;;;;;;;;;;;;5058032;28;19962;-25
2022/12/31 03:47:10;;;;;;;;;;;;;;;;;;5057244;28;19939;-25
2022/12/31 03:49:36;;;;;;;;;;;;;;;;;;5057152;28;19928;-25
2022/12/31 03:52:05;;;;;;;;;;;;;;;;;;5056984;28;20371;-25
2022/12/31 03:54:31;;;;;;;;;;;;;;;;;;5056520;28;19913;-25
2022/12/31 03:56:57;;;;;;;;;;;;;;;;;;5057599;28;20344;-25
2022/12/31 03:59:24;;;;;;;;;;;;;;;;;;5057030;28;20026;-25
2022/12/31 04:01:50;;;;;;;;;;;;;;;;;;5057158;28;20347;-25
2022/12/31 04:04:17;;;;;;;;;;;;;;;;;;5056824;28;19921;-25
2022/12/31 04:06:44;;;;;;;;;;;;;;;;;;5057155;28;19921;-25
2022/12/31 04:09:10;;;;;;;;;;;;;;;;;;5056919;28;19987;-25
2022/12/31 04:11:36;;;;;;;;;;;;;;;;;;5057344;28;19917;-25
2022/12/31 04:14:03;;;;;;;;;;;;;;;;;;5056665;28;19915;-25
2022/12/31 04:16:31;;;;;;;;;;;;;;;;;;5057013;28;19913;-26
2022/12/31 04:18:57;;;;;;;;;;;;;;;;;;5056652;28;19982;-25
2022/12/31 04:21:23;;;;;;;;;;;;;;;;;;5056926;28;20394;-25
2022/12/31 04:23:49;;;;;;;;;;;;;;;;;;5056593;28;19909;-25
2022/12/31 04:26:16;;;;;;;;;;;;;;;;;;5056525;28;19928;-24
2022/12/31 04:28:42;;;;;;;;;;;;;;;;;;5056545;28;20346;-24
2022/12/31 04:31:10;;;;;;;;;;;;;;;;;;5056768;28;19927;-24
2022/12/31 04:33:36;;;;;;;;;;;;;;;;;;5056319;28;19916;-25
2022/12/31 04:36:02;;;;;;;;;;;;;;;;;;5056362;28;19913;-24
2022/12/31 04:38:28;;;;;;;;;;;;;;;;;;5056304;28;19974;-24
2022/12/31 04:43:39;;;;;;;;;;;;;;;;;;5056220;28;20002;-25
2022/12/31 04:46:06;;;;;;;;;;;;;;;;;;5056397;28;20306;-24
2022/12/31 04:48:32;;;;;;;;;;;;;;;;;;5056042;28;19927;-25
2022/12/31 04:50:58;;;;;;;;;;;;;;;;;;5056021;28;19923;-24
2022/12/31 04:53:24;;;;;;;;;;;;;;;;;;5055967;28;19913;-24
2022/12/31 04:55:50;;;;;;;;;;;;;;;;;;5054844;28;20352;-25
2022/12/31 04:58:16;;;;;;;;;;;;;;;;;;5055866;28;19913;-24
2022/12/31 05:00:43;;;;;;;;;;;;;;;;;;5056109;28;20003;-25
2022/12/31 05:03:09;;;;;;;;;;;;;;;;;;5054620;28;19973;-24
2022/12/31 05:05:35;;;;;;;;;;;;;;;;;;5054663;28;19920;-24
2022/12/31 05:08:01;;;;;;;;;;;;;;;;;;5055673;28;19920;-25
2022/12/31 05:10:28;;;;;;;;;;;;;;;;;;5055878;28;19925;-25
2022/12/31 05:12:54;;;;;;;;;;;;;;;;;;5055534;28;19948;-24
2022/12/31 05:15:20;;;;;;;;;;;;;;;;;;5055508;28;19920;-25
2022/12/31 05:17:46;;;;;;;;;;;;;;;;;;5055502;28;20335;-24
2022/12/31 05:20:12;;;;;;;;;;;;;;;;;;5055529;28;20259;-25
2022/12/31 05:22:38;;;;;;;;;;;;;;;;;;5055208;28;19974;-25
2022/12/31 05:25:04;;;;;;;;;;;;;;;;;;5055457;28;19916;-24
2022/12/31 05:27:30;;;;;;;;;;;;;;;;;;5055460;28;20294;-24
2022/12/31 05:29:56;;;;;;;;;;;;;;;;;;5055502;28;20255;-25
2022/12/31 05:32:22;;;;;;;;;;;;;;;;;;5055402;28;19913;-24
2022/12/31 05:34:48;;;;;;;;;;;;;;;;;;5055188;28;19908;-24
2022/12/31 05:37:14;;;;;;;;;;;;;;;;;;5055313;28;19966;-25
2022/12/31 05:39:40;;;;;;;;;;;;;;;;;;5055134;28;20004;-24
2022/12/31 05:42:06;;;;;;;;;;;;;;;;;;5055086;28;19928;-25
2022/12/31 05:44:32;;;;;;;;;;;;;;;;;;5054990;28;20275;-24
2022/12/31 05:46:58;;;;;;;;;;;;;;;;;;5054883;28;20009;-25
2022/12/31 05:49:24;;;;;;;;;;;;;;;;;;5055012;28;19909;-24
2022/12/31 05:51:50;;;;;;;;;;;;;;;;;;5054795;28;19923;-24
2022/12/31 05:54:16;;;;;;;;;;;;;;;;;;5054802;28;20011;-24
2022/12/31 05:56:42;;;;;;;;;;;;;;;;;;5054682;28;19916;-24
2022/12/31 05:59:08;;;;;;;;;;;;;;;;;;5054762;28;19919;-24
2022/12/31 06:01:33;;;;;;;;;;;;;;;;;;5055017;28;19920;-25
2022/12/31 06:03:59;;;;;;;;;;;;;;;;;;5054323;28;19916;-25
2022/12/31 06:06:25;;;;;;;;;;;;;;;;;;5054689;28;20016;-24
2022/12/31 06:08:52;;;;;;;;;;;;;;;;;;5054937;28;19956;-24
2022/12/31 06:11:17;;;;;;;;;;;;;;;;;;5053708;28;19913;-24
2022/12/31 06:13:43;;;;;;;;;;;;;;;;;;5054632;28;19928;-24
2022/12/31 06:16:09;;;;;;;;;;;;;;;;;;5054251;28;19917;-24
2022/12/31 06:18:35;;;;;;;;;;;;;;;;;;5054500;28;20347;-25
2022/12/31 06:21:01;;;;;;;;;;;;;;;;;;5054864;28;19991;-24
2022/12/31 06:23:27;;;;;;;;;;;;;;;;;;5054554;28;20263;-25
2022/12/31 06:25:53;;;;;;;;;;;;;;;;;;5054785;28;19917;-25
2022/12/31 06:28:19;;;;;;;;;;;;;;;;;;5054681;28;20004;-24
2022/12/31 06:30:46;;;;;;;;;;;;;;;;;;5054530;28;20000;-25
2022/12/31 06:33:12;;;;;;;;;;;;;;;;;;5054520;28;20336;-25
2022/12/31 06:35:38;;;;;;;;;;;;;;;;;;5054267;28;19919;-25
2022/12/31 06:38:04;;;;;;;;;;;;;;;;;;5054399;28;19913;-24
2022/12/31 06:40:30;;;;;;;;;;;;;;;;;;5053415;28;19935;-25
2022/12/31 06:42:56;;;;;;;;;;;;;;;;;;5054292;28;20252;-24
2022/12/31 06:45:21;;;;;;;;;;;;;;;;;;5053247;28;19923;-24
2022/12/31 06:47:47;;;;;;;;;;;;;;;;;;5054173;28;19909;-24
2022/12/31 06:50:13;;;;;;;;;;;;;;;;;;5054158;28;19979;-24
2022/12/31 06:52:39;;;;;;;;;;;;;;;;;;5054244;28;19979;-25
2022/12/31 06:55:05;;;;;;;;;;;;;;;;;;5054276;28;19948;-24
2022/12/31 06:57:31;;;;;;;;;;;;;;;;;;5054260;28;19913;-25
2022/12/31 06:59:57;;;;;;;;;;;;;;;;;;5054322;28;19966;-25
2022/12/31 07:02:23;;;;;;;;;;;;;;;;;;5053082;28;19964;-25
2022/12/31 07:04:49;;;;;;;;;;;;;;;;;;5053970;28;19968;-24
2022/12/31 07:07:15;;;;;;;;;;;;;;;;;;5054138;28;19931;-24
2022/12/31 07:09:41;;;;;;;;;;;;;;;;;;5054221;28;19921;-25
2022/12/31 07:12:07;;;;;;;;;;;;;;;;;;5054330;28;20354;-25
2022/12/31 07:14:33;;;;;;;;;;;;;;;;;;5054233;28;19913;-25
2022/12/31 07:16:59;;;;;;;;;;;;;;;;;;5054265;28;20256;-25
2022/12/31 07:19:25;;;;;;;;;;;;;;;;;;5053986;28;19955;-24
2022/12/31 07:21:51;;;;;;;;;;;;;;;;;;5054578;28;19913;-24
2022/12/31 07:24:17;;;;;;;;;;;;;;;;;;5054037;28;19937;-24
2022/12/31 07:26:43;;;;;;;;;;;;;;;;;;5054183;28;20254;-25
2022/12/31 07:29:10;;;;;;;;;;;;;;;;;;5056527;28;19912;-25
2022/12/31 07:31:36;;;;;;;;;;;;;;;;;;5058548;28;20231;-24
2022/12/31 07:34:02;;;;;;;;;;;;;;;;;;5057414;28;19909;-24
2022/12/31 07:36:28;;;;;;;;;;;;;;;;;;5057825;28;20224;-24
2022/12/31 07:38:54;;;;;;;;;;;;;;;;;;5057423;28;20267;-25
2022/12/31 07:41:20;;;;;;;;;;;;;;;;;;5057502;28;19965;-25
2022/12/31 07:43:46;;;;;;;;;;;;;;;;;;5057518;28;19917;-25
2022/12/31 07:46:12;;;;;;;;;;;;;;;;;;5057143;28;20031;-24
2022/12/31 07:48:38;;;;;;;;;;;;;;;;;;5057440;28;19940;-24
2022/12/31 07:51:04;;;;;;;;;;;;;;;;;;5057400;28;19912;-24
2022/12/31 07:53:30;;;;;;;;;;;;;;;;;;5057164;28;20305;-24
2022/12/31 07:55:56;;;;;;;;;;;;;;;;;;5057057;28;19923;-24
2022/12/31 07:58:22;;;;;;;;;;;;;;;;;;5057213;28;20002;-24
2022/12/31 08:00:48;;;;;;;;;;;;;;;;;;5056983;28;19909;-24
2022/12/31 08:03:14;;;;;;;;;;;;;;;;;;5056491;28;19916;-24
2022/12/31 08:05:40;;;;;;;;;;;;;;;;;;5057148;28;19931;-24
2022/12/31 08:08:06;;;;;;;;;;;;;;;;;;5056739;28;19974;-24
2022/12/31 08:10:33;;;;;;;;;;;;;;;;;;5056846;28;19970;-24
2022/12/31 08:12:59;;;;;;;;;;;;;;;;;;5056865;28;19952;-24
2022/12/31 08:15:25;;;;;;;;;;;;;;;;;;5056906;28;20338;-24
2022/12/31 08:17:51;;;;;;;;;;;;;;;;;;5057043;28;20034;-24
2022/12/31 08:20:17;;;;;;;;;;;;;;;;;;5056692;28;19989;-24
2022/12/31 08:22:43;;;;;;;;;;;;;;;;;;5056453;28;19913;-24
2022/12/31 08:25:09;;;;;;;;;;;;;;;;;;5056449;28;19958;-24
2022/12/31 08:27:35;;;;;;;;;;;;;;;;;;5056325;28;20310;-24
2022/12/31 08:30:01;;;;;;;;;;;;;;;;;;5056302;28;19909;-24
2022/12/31 08:32:27;;;;;;;;;;;;;;;;;;5056153;28;20263;-24
2022/12/31 08:34:53;;;;;;;;;;;;;;;;;;5055206;28;19924;-24
2022/12/31 08:37:19;;;;;;;;;;;;;;;;;;5056448;28;19920;-24
2022/12/31 08:39:45;;;;;;;;;;;;;;;;;;5055947;28;19912;-24
2022/12/31 08:42:11;;;;;;;;;;;;;;;;;;5056183;28;19988;-24
2022/12/31 08:44:37;;;;;;;;;;;;;;;;;;5056169;28;19913;-24
2022/12/31 08:47:03;;;;;;;;;;;;;;;;;;5056221;28;20011;-24
2022/12/31 08:49:29;;;;;;;;;;;;;;;;;;5056098;28;20336;-24
2022/12/31 08:51:55;;;;;;;;;;;;;;;;;;5054817;28;19920;-24
2022/12/31 08:54:21;;;;;;;;;;;;;;;;;;5055903;28;19979;-24
2022/12/31 08:56:47;;;;;;;;;;;;;;;;;;5056038;28;19913;-24
2022/12/31 08:59:13;;;;;;;;;;;;;;;;;;5056067;28;19935;-24
2022/12/31 09:01:39;;;;;;;;;;;;;;;;;;5054833;28;19929;-24
2022/12/31 09:04:05;;;;;;;;;;;;;;;;;;5055496;28;19936;-24
2022/12/31 09:06:31;;;;;;;;;;;;;;;;;;5055864;28;19932;-24
2022/12/31 09:08:57;;;;;;;;;;;;;;;;;;5056043;28;20264;-24
2022/12/31 09:11:23;;;;;;;;;;;;;;;;;;5055698;28;19959;-24
2022/12/31 09:13:49;;;;;;;;;;;;;;;;;;5054660;28;20392;-24
2022/12/31 09:16:15;;;;;;;;;;;;;;;;;;5054635;28;20251;-24
2022/12/31 09:18:41;;;;;;;;;;;;;;;;;;5055868;28;19909;-24
2022/12/31 09:21:07;;;;;;;;;;;;;;;;;;5055814;28;19913;-24
2022/12/31 09:23:33;;;;;;;;;;;;;;;;;;5055443;28;19919;-24
2022/12/31 09:25:59;;;;;;;;;;;;;;;;;;5055486;28;19917;-24
2022/12/31 09:28:25;;;;;;;;;;;;;;;;;;5055818;28;19992;-24
2022/12/31 09:30:51;;;;;;;;;;;;;;;;;;5055363;28;19931;-24
2022/12/31 09:33:17;;;;;;;;;;;;;;;;;;5055603;28;20003;-24
2022/12/31 09:35:45;;;;;;;;;;;;;;;;;;5055303;28;20217;-24
2022/12/31 09:38:11;;;;;;;;;;;;;;;;;;5055213;28;19920;-24
2022/12/31 09:40:37;;;;;;;;;;;;;;;;;;5055755;28;19924;-24
2022/12/31 09:43:03;;;;;;;;;;;;;;;;;;5055051;28;19912;-24
2022/12/31 09:45:29;;;;;;;;;;;;;;;;;;5055091;28;19931;-24
2022/12/31 09:47:55;;;;;;;;;;;;;;;;;;5055384;28;19919;-24
2022/12/31 09:50:21;;;;;;;;;;;;;;;;;;5054591;28;19984;-24
2022/12/31 09:52:47;;;;;;;;;;;;;;;;;;5054800;28;19912;-24
2022/12/31 09:55:13;;;;;;;;;;;;;;;;;;5055218;28;19944;-24
2022/12/31 09:57:39;;;;;;;;;;;;;;;;;;5054925;28;19920;-24
2022/12/31 10:00:05;;;;;;;;;;;;;;;;;;5055215;28;20336;-24
2022/12/31 10:02:31;;;;;;;;;;;;;;;;;;5054817;28;19959;-24
2022/12/31 10:04:57;;;;;;;;;;;;;;;;;;5054690;28;19927;-24
2022/12/31 10:07:23;;;;;;;;;;;;;;;;;;5054756;28;19917;-24
2022/12/31 10:09:49;;;;;;;;;;;;;;;;;;5054779;28;19912;-24
2022/12/31 10:12:15;;;;;;;;;;;;;;;;;;5054735;28;19912;-24
2022/12/31 10:14:41;;;;;;;;;;;;;;;;;;5054694;28;19978;-24
2022/12/31 10:17:07;;;;;;;;;;;;;;;;;;5054720;28;19913;-24
2022/12/31 10:19:33;;;;;;;;;;;;;;;;;;5054564;28;19932;-24
2022/12/31 10:21:59;;;;;;;;;;;;;;;;;;5054565;28;19909;-24
2022/12/31 10:24:25;;;;;;;;;;;;;;;;;;5054885;28;20359;-23
2022/12/31 10:26:51;;;;;;;;;;;;;;;;;;5054500;28;19913;-24
2022/12/31 10:29:18;;;;;;;;;;;;;;;;;;5054549;28;20283;-24
2022/12/31 10:31:44;;;;;;;;;;;;;;;;;;5054589;28;20328;-24
2022/12/31 10:34:10;;;;;;;;;;;;;;;;;;5054449;28;19909;-24
2022/12/31 10:36:36;;;;;;;;;;;;;;;;;;5054692;28;19987;-24
2022/12/31 10:39:02;;;;;;;;;;;;;;;;;;5054540;28;19913;-24
2022/12/31 10:41:28;;;;;;;;;;;;;;;;;;5054527;28;19923;-24
2022/12/31 10:43:54;;;;;;;;;;;;;;;;;;5054720;28;19969;-24
2022/12/31 10:46:20;;;;;;;;;;;;;;;;;;5054342;28;20326;-24
2022/12/31 10:48:46;;;;;;;;;;;;;;;;;;5054794;28;19993;-24
2022/12/31 10:51:17;;;;;;;;;;;;;;;;;;5054461;28;19913;-24
2022/12/31 10:53:43;;;;;;;;;;;;;;;;;;5054295;28;19913;-24
2022/12/31 10:56:09;;;;;;;;;;;;;;;;;;5053297;28;19924;-24
2022/12/31 10:58:35;;;;;;;;;;;;;;;;;;5054320;28;20359;-24
2022/12/31 11:01:01;;;;;;;;;;;;;;;;;;5054177;28;19913;-24
2022/12/31 11:03:27;;;;;;;;;;;;;;;;;;5057155;28;19913;-24
2022/12/31 11:05:53;;;;;;;;;;;;;;;;;;5058365;28;19951;-24
2022/12/31 11:08:19;;;;;;;;;;;;;;;;;;5058122;28;19974;-24
2022/12/31 11:10:45;;;;;;;;;;;;;;;;;;5058089;28;19916;-24
2022/12/31 11:13:11;;;;;;;;;;;;;;;;;;5058183;28;19909;-24
2022/12/31 11:15:36;;;;;;;;;;;;;;;;;;5057992;28;19943;-24
2022/12/31 11:18:02;;;;;;;;;;;;;;;;;;5058147;28;19920;-24
2022/12/31 11:20:28;;;;;;;;;;;;;;;;;;5058180;28;19966;-24
2022/12/31 11:22:55;;;;;;;;;;;;;;;;;;5058106;28;20318;-24
2022/12/31 11:25:21;;;;;;;;;;;;;;;;;;5058043;28;20245;-24
2022/12/31 11:27:47;;;;;;;;;;;;;;;;;;5057726;28;20424;-24
2022/12/31 11:30:13;;;;;;;;;;;;;;;;;;5057642;28;20015;-24
2022/12/31 11:32:39;;;;;;;;;;;;;;;;;;5057546;28;19956;-24
2022/12/31 11:35:05;;;;;;;;;;;;;;;;;;5057597;28;19974;-24
2022/12/31 11:37:32;;;;;;;;;;;;;;;;;;5057603;28;20331;-24
2022/12/31 11:39:58;;;;;;;;;;;;;;;;;;5057421;28;19917;-24
2022/12/31 11:42:24;;;;;;;;;;;;;;;;;;5057323;28;19909;-24
2022/12/31 11:44:50;;;;;;;;;;;;;;;;;;5057637;28;19916;-24
2022/12/31 11:47:16;;;;;;;;;;;;;;;;;;5057289;28;19963;-25
2022/12/31 11:49:42;;;;;;;;;;;;;;;;;;5057413;28;20236;-24
2022/12/31 11:52:08;;;;;;;;;;;;;;;;;;5057132;28;19927;-24
2022/12/31 11:54:34;;;;;;;;;;;;;;;;;;5057728;28;19909;-24
2022/12/31 11:57:00;;;;;;;;;;;;;;;;;;5057463;28;19924;-24
2022/12/31 11:59:26;;;;;;;;;;;;;;;;;;5056249;28;20212;-24
2022/12/31 12:01:52;;;;;;;;;;;;;;;;;;5057069;28;19920;-24
2022/12/31 12:04:18;;;;;;;;;;;;;;;;;;5056914;28;19921;-24
2022/12/31 12:06:44;;;;;;;;;;;;;;;;;;5057244;28;20221;-24
2022/12/31 12:09:10;;;;;;;;;;;;;;;;;;5057272;28;19919;-24
2022/12/31 12:11:36;;;;;;;;;;;;;;;;;;5056885;28;19959;-24
2022/12/31 12:14:02;;;;;;;;;;;;;;;;;;5056279;28;19909;-24
2022/12/31 12:16:28;;;;;;;;;;;;;;;;;;5056843;28;19974;-24
2022/12/31 12:18:54;;;;;;;;;;;;;;;;;;5056818;28;20332;-24
2022/12/31 12:21:20;;;;;;;;;;;;;;;;;;5056715;28;20316;-24
2022/12/31 12:23:46;;;;;;;;;;;;;;;;;;5056635;28;19919;-24
2022/12/31 12:26:12;;;;;;;;;;;;;;;;;;5056538;28;20225;-24
2022/12/31 12:28:38;;;;;;;;;;;;;;;;;;5056669;28;19909;-24
2022/12/31 12:31:04;;;;;;;;;;;;;;;;;;5056581;28;19975;-24
2022/12/31 12:33:30;;;;;;;;;;;;;;;;;;5056334;28;19913;-24
2022/12/31 12:35:56;;;;;;;;;;;;;;;;;;5056696;28;19916;-24
2022/12/31 12:38:22;;;;;;;;;;;;;;;;;;5056456;28;19919;-24
2022/12/31 12:40:48;;;;;;;;;;;;;;;;;;5056371;28;19913;-24
2022/12/31 12:43:14;;;;;;;;;;;;;;;;;;5056309;28;19909;-25
2022/12/31 12:45:40;;;;;;;;;;;;;;;;;;5056495;28;19952;-24
2022/12/31 12:48:06;;;;;;;;;;;;;;;;;;5056278;28;19916;-25
2022/12/31 12:50:32;;;;;;;;;;;;;;;;;;5056146;28;19920;-24
2022/12/31 12:52:58;;;;;;;;;;;;;;;;;;5056186;28;19908;-25
2022/12/31 12:55:24;;;;;;;;;;;;;;;;;;5056102;28;19920;-24
2022/12/31 12:57:50;;;;;;;;;;;;;;;;;;5056355;28;19917;-24
2022/12/31 13:00:16;;;;;;;;;;;;;;;;;;5055038;28;19956;-25
2022/12/31 13:02:45;;;;;;;;;;;;;;;;;;5055848;28;19940;-25
2022/12/31 13:05:11;;;;;;;;;;;;;;;;;;5055667;28;19917;-24
2022/12/31 13:07:37;;;;;;;;;;;;;;;;;;5054966;28;19928;-25
2022/12/31 13:10:03;;;;;;;;;;;;;;;;;;5055785;28;19912;-24
2022/12/31 13:12:29;;;;;;;;;;;;;;;;;;5055719;28;19955;-24
2022/12/31 13:14:55;;;;;;;;;;;;;;;;;;5055709;28;19970;-26
2022/12/31 13:17:21;;;;;;;;;;;;;;;;;;5056001;28;20238;-25
2022/12/31 13:19:47;;;;;;;;;;;;;;;;;;5055617;28;19970;-24
2022/12/31 13:22:13;;;;;;;;;;;;;;;;;;5054586;28;20343;-24
2022/12/31 13:24:39;;;;;;;;;;;;;;;;;;5055471;28;19924;-24
2022/12/31 13:27:05;;;;;;;;;;;;;;;;;;5054556;28;19913;-25
2022/12/31 13:29:31;;;;;;;;;;;;;;;;;;5055742;28;19909;-24
2022/12/31 13:31:57;;;;;;;;;;;;;;;;;;5055315;28;19951;-25
2022/12/31 13:34:23;;;;;;;;;;;;;;;;;;5055422;28;19932;-25
2022/12/31 13:36:49;;;;;;;;;;;;;;;;;;5055561;28;20237;-25
2022/12/31 13:39:15;;;;;;;;;;;;;;;;;;5055252;28;19916;-25
2022/12/31 13:41:41;;;;;;;;;;;;;;;;;;5054302;28;19920;-24
2022/12/31 13:44:07;;;;;;;;;;;;;;;;;;5055340;28;20350;-24
2022/12/31 13:46:33;;;;;;;;;;;;;;;;;;5055019;28;20269;-25
2022/12/31 13:48:59;;;;;;;;;;;;;;;;;;5055097;28;19909;-24
2022/12/31 13:51:25;;;;;;;;;;;;;;;;;;5055270;28;19912;-24
2022/12/31 13:53:51;;;;;;;;;;;;;;;;;;5055037;28;19992;-25
2022/12/31 13:56:17;;;;;;;;;;;;;;;;;;5055263;28;19917;-24
2022/12/31 13:58:43;;;;;;;;;;;;;;;;;;5055277;28;19977;-24
2022/12/31 14:01:09;;;;;;;;;;;;;;;;;;5055328;28;19975;-24
2022/12/31 14:03:35;;;;;;;;;;;;;;;;;;5054605;28;19912;-24
2022/12/31 14:06:01;;;;;;;;;;;;;;;;;;5055048;28;19924;-24
2022/12/31 14:08:27;;;;;;;;;;;;;;;;;;5054845;28;19959;-24
2022/12/31 14:10:53;;;;;;;;;;;;;;;;;;5054858;28;20259;-24
2022/12/31 14:13:19;;;;;;;;;;;;;;;;;;5054716;28;19920;-24
2022/12/31 14:15:45;;;;;;;;;;;;;;;;;;5054619;28;20070;-24
2022/12/31 14:18:11;;;;;;;;;;;;;;;;;;5055015;28;19944;-24
2022/12/31 14:20:37;;;;;;;;;;;;;;;;;;5054677;28;19966;-24
2022/12/31 14:23:03;;;;;;;;;;;;;;;;;;5054617;28;19935;-24
2022/12/31 14:25:29;;;;;;;;;;;;;;;;;;5054631;28;19999;-24
2022/12/31 14:27:55;;;;;;;;;;;;;;;;;;5054662;28;19948;-24
2022/12/31 14:30:21;;;;;;;;;;;;;;;;;;5054631;28;19916;-24
2022/12/31 14:32:47;;;;;;;;;;;;;;;;;;5054857;28;19913;-24
2022/12/31 14:35:13;;;;;;;;;;;;;;;;;;5054584;28;20008;-24
2022/12/31 14:37:39;;;;;;;;;;;;;;;;;;5056560;28;19913;-24
2022/12/31 14:40:05;;;;;;;;;;;;;;;;;;5057734;28;20256;-24
2022/12/31 14:42:31;;;;;;;;;;;;;;;;;;5057550;28;19924;-24
2022/12/31 14:44:57;;;;;;;;;;;;;;;;;;5058449;28;19913;-24
2022/12/31 14:47:23;;;;;;;;;;;;;;;;;;5058730;28;19912;-24
2022/12/31 14:49:49;;;;;;;;;;;;;;;;;;5058733;28;19912;-25
2022/12/31 14:52:15;;;;;;;;;;;;;;;;;;5058580;28;19983;-24
2022/12/31 14:54:41;;;;;;;;;;;;;;;;;;5058459;28;19909;-24
2022/12/31 14:57:07;;;;;;;;;;;;;;;;;;5058338;28;19913;-24
2022/12/31 14:59:33;;;;;;;;;;;;;;;;;;5058605;28;19924;-24
2022/12/31 15:01:59;;;;;;;;;;;;;;;;;;5058159;28;19913;-24
2022/12/31 15:04:25;;;;;;;;;;;;;;;;;;5058113;28;19928;-24
2022/12/31 15:06:51;;;;;;;;;;;;;;;;;;5058129;28;19928;-24
2022/12/31 15:09:17;;;;;;;;;;;;;;;;;;5058111;28;20034;-24
2022/12/31 15:11:45;;;;;;;;;;;;;;;;;;5058105;28;19924;-24
2022/12/31 15:14:11;;;;;;;;;;;;;;;;;;5058028;28;19979;-24
2022/12/31 15:16:37;;;;;;;;;;;;;;;;;;5058275;28;20368;-24
2022/12/31 15:19:03;;;;;;;;;;;;;;;;;;5057978;28;19978;-24
2022/12/31 15:21:29;;;;;;;;;;;;;;;;;;5057855;28;20067;-24
2022/12/31 15:23:55;;;;;;;;;;;;;;;;;;5057792;28;19943;-24
2022/12/31 15:26:21;;;;;;;;;;;;;;;;;;5058040;28;19986;-24
2022/12/31 15:28:47;;;;;;;;;;;;;;;;;;5057747;28;19928;-24
2022/12/31 15:31:13;;;;;;;;;;;;;;;;;;5057659;28;20340;-24
2022/12/31 15:33:39;;;;;;;;;;;;;;;;;;5057699;28;19944;-24
2022/12/31 15:36:04;;;;;;;;;;;;;;;;;;5057601;28;19917;-24
2022/12/31 15:38:31;;;;;;;;;;;;;;;;;;5057613;28;20102;-24
2022/12/31 15:40:57;;;;;;;;;;;;;;;;;;5057846;28;20290;-24
2022/12/31 15:43:23;;;;;;;;;;;;;;;;;;5057487;28;19956;-23
2022/12/31 15:45:51;;;;;;;;;;;;;;;;;;5057438;28;19967;-23
2022/12/31 15:48:17;;;;;;;;;;;;;;;;;;5056954;28;20057;-23
2022/12/31 15:50:43;;;;;;;;;;;;;;;;;;5057100;28;19915;-23
2022/12/31 15:53:09;;;;;;;;;;;;;;;;;;5057374;28;19917;-23
2022/12/31 15:55:36;;;;;;;;;;;;;;;;;;5057278;28;19909;-23
2022/12/31 15:58:02;;;;;;;;;;;;;;;;;;5057427;28;19955;-23
2022/12/31 16:00:28;;;;;;;;;;;;;;;;;;5057203;28;19924;-23
2022/12/31 16:02:54;;;;;;;;;;;;;;;;;;5057250;28;19916;-23
2022/12/31 16:05:20;;;;;;;;;;;;;;;;;;5056871;28;19971;-23
2022/12/31 16:07:46;;;;;;;;;;;;;;;;;;5057286;28;19908;-23
2022/12/31 16:10:12;;;;;;;;;;;;;;;;;;5056933;28;19966;-23
2022/12/31 16:12:38;;;;;;;;;;;;;;;;;;5056863;28;20263;-23
2022/12/31 16:15:04;;;;;;;;;;;;;;;;;;5057065;28;20263;-23
2022/12/31 16:17:30;;;;;;;;;;;;;;;;;;5057094;28;19995;-23
2022/12/31 16:19:57;;;;;;;;;;;;;;;;;;5056745;28;19938;-23
2022/12/31 16:22:23;;;;;;;;;;;;;;;;;;5056704;28;19908;-24
2022/12/31 16:24:49;;;;;;;;;;;;;;;;;;5056749;28;19913;-23
2022/12/31 16:27:15;;;;;;;;;;;;;;;;;;5056848;28;19928;-23
2022/12/31 16:29:41;;;;;;;;;;;;;;;;;;5056668;28;19924;-23
2022/12/31 16:32:07;;;;;;;;;;;;;;;;;;5056545;28;19916;-23
2022/12/31 16:34:33;;;;;;;;;;;;;;;;;;5057359;28;19912;-23
2022/12/31 16:36:59;;;;;;;;;;;;;;;;;;5056351;28;19919;-23
2022/12/31 16:39:25;;;;;;;;;;;;;;;;;;5056398;28;19995;-23
2022/12/31 16:41:51;;;;;;;;;;;;;;;;;;5056892;28;19913;-23
2022/12/31 16:44:17;;;;;;;;;;;;;;;;;;5055439;28;19920;-23
2022/12/31 16:46:44;;;;;;;;;;;;;;;;;;5056478;28;19917;-23
2022/12/31 16:49:10;;;;;;;;;;;;;;;;;;5055298;28;19917;-23
2022/12/31 16:51:36;;;;;;;;;;;;;;;;;;5056430;28;19913;-23
2022/12/31 16:54:02;;;;;;;;;;;;;;;;;;5056078;28;19938;-23